createdAt,value
2023-02-03T00:00:14.981Z,1015.85
2023-02-03T00:01:15.097Z,1015.80
2023-02-03T00:02:15.333Z,1015.81
2023-02-03T00:03:15.405Z,1015.80
2023-02-03T00:04:15.516Z,1015.73
2023-02-03T00:05:15.617Z,1015.76
2023-02-03T00:06:15.747Z,1015.72
2023-02-03T00:07:15.849Z,1015.66
2023-02-03T00:08:16.049Z,1015.69
2023-02-03T00:09:16.139Z,1015.63
2023-02-03T00:10:16.232Z,1015.62
2023-02-03T00:11:16.361Z,1015.59
2023-02-03T00:12:16.469Z,1015.61
2023-02-03T00:13:16.596Z,1015.59
2023-02-03T00:14:16.686Z,1015.59
2023-02-03T00:15:16.791Z,1015.60
2023-02-03T00:16:16.948Z,1015.56
2023-02-03T00:17:17.038Z,1015.61
2023-02-03T00:18:17.150Z,1015.53
2023-02-03T00:19:17.789Z,1015.54
2023-02-03T00:20:17.460Z,1015.53
2023-02-03T00:21:17.614Z,1015.52
2023-02-03T00:22:17.715Z,1015.46
2023-02-03T00:23:17.814Z,1015.47
2023-02-03T00:24:18.029Z,1015.38
2023-02-03T00:25:18.128Z,1015.27
2023-02-03T00:26:18.251Z,1015.27
2023-02-03T00:27:18.367Z,1015.23
2023-02-03T00:28:18.502Z,1015.18
2023-02-03T00:29:18.599Z,1015.15
2023-02-03T00:30:18.707Z,1015.13
2023-02-03T00:31:18.947Z,1015.10
2023-02-03T00:32:19.058Z,1015.08
2023-02-03T00:33:19.094Z,1014.98
2023-02-03T00:34:19.328Z,1014.97
2023-02-03T00:35:19.413Z,1014.91
2023-02-03T00:36:19.652Z,1014.93
2023-02-03T00:37:19.741Z,1014.88
2023-02-03T00:38:19.867Z,1014.89
2023-02-03T00:39:19.981Z,1014.92
2023-02-03T00:40:20.084Z,1014.90
2023-02-03T00:41:20.220Z,1014.92
2023-02-03T00:42:20.316Z,1014.86
2023-02-03T00:43:20.417Z,1014.81
2023-02-03T00:44:20.539Z,1014.76
2023-02-03T00:45:20.654Z,1014.69
2023-02-03T00:46:20.792Z,1014.62
2023-02-03T00:47:20.883Z,1014.59
2023-02-03T00:48:20.988Z,1014.55
2023-02-03T00:49:21.093Z,1014.56
2023-02-03T00:50:21.201Z,1014.65
2023-02-03T00:51:21.316Z,1014.64
2023-02-03T00:52:21.431Z,1014.61
2023-02-03T00:53:21.548Z,1014.68
2023-02-03T00:54:21.692Z,1014.66
2023-02-03T00:55:21.812Z,1014.62
2023-02-03T00:56:21.961Z,1014.63
2023-02-03T00:57:22.092Z,1014.57
2023-02-03T00:58:22.222Z,1014.59
2023-02-03T00:59:22.355Z,1014.55
2023-02-03T01:00:22.463Z,1014.65
2023-02-03T01:01:22.632Z,1014.62
2023-02-03T01:02:22.792Z,1014.55
2023-02-03T01:03:22.905Z,1014.52
2023-02-03T01:04:23.074Z,1014.47
2023-02-03T01:05:23.163Z,1014.46
2023-02-03T01:06:23.306Z,1014.42
2023-02-03T01:07:23.423Z,1014.47
2023-02-03T01:08:23.544Z,1014.49
2023-02-03T01:09:23.659Z,1014.43
2023-02-03T01:10:23.906Z,1014.32
2023-02-03T01:11:23.954Z,1014.34
2023-02-03T01:12:24.077Z,1014.32
2023-02-03T01:13:24.188Z,1014.34
2023-02-03T01:14:24.412Z,1014.32
2023-02-03T01:15:24.517Z,1014.30
2023-02-03T01:16:25.652Z,1014.31
2023-02-03T01:17:24.782Z,1014.34
2023-02-03T01:18:24.888Z,1014.30
2023-02-03T01:19:25.010Z,1014.28
2023-02-03T01:20:25.755Z,1014.23
2023-02-03T01:21:25.323Z,1014.23
2023-02-03T01:22:25.441Z,1014.21
2023-02-03T01:23:25.547Z,1014.18
2023-02-03T01:24:25.780Z,1014.15
2023-02-03T01:25:25.882Z,1014.14
2023-02-03T01:26:26.018Z,1014.09
2023-02-03T01:27:26.152Z,1014.17
2023-02-03T01:28:26.276Z,1014.16
2023-02-03T01:29:26.384Z,1014.13
2023-02-03T01:30:26.788Z,1014.15
2023-02-03T01:31:26.734Z,1014.18
2023-02-03T01:32:26.755Z,1014.06
2023-02-03T01:33:26.864Z,1014.06
2023-02-03T01:34:26.994Z,1013.99
2023-02-03T01:35:27.103Z,1013.89
2023-02-03T01:36:27.222Z,1013.83
2023-02-03T01:37:27.328Z,1013.80
2023-02-03T01:38:27.588Z,1013.83
2023-02-03T01:39:27.582Z,1013.79
2023-02-03T01:40:28.098Z,1013.77
2023-02-03T01:41:27.901Z,1013.91
2023-02-03T01:42:28.034Z,1013.77
2023-02-03T01:43:28.146Z,1013.76
2023-02-03T01:44:28.296Z,1013.75
2023-02-03T01:45:28.433Z,1013.74
2023-02-03T01:46:28.669Z,1013.69
2023-02-03T01:47:28.664Z,1013.66
2023-02-03T01:48:28.789Z,1013.59
2023-02-03T01:49:28.905Z,1013.52
2023-02-03T01:50:29.031Z,1013.53
2023-02-03T01:51:29.174Z,1013.49
2023-02-03T01:52:29.288Z,1013.45
2023-02-03T01:53:29.426Z,1013.43
2023-02-03T01:54:29.580Z,1013.34
2023-02-03T01:55:29.697Z,1013.33
2023-02-03T01:56:29.847Z,1013.35
2023-02-03T01:57:29.977Z,1013.29
2023-02-03T01:58:30.099Z,1013.25
2023-02-03T01:59:30.230Z,1013.29
2023-02-03T02:00:30.352Z,1013.18
2023-02-03T02:01:30.576Z,1013.25
2023-02-03T02:02:30.752Z,1013.20
2023-02-03T02:03:30.833Z,1013.25
2023-02-03T02:04:30.964Z,1013.18
2023-02-03T02:05:31.113Z,1013.19
2023-02-03T02:06:31.245Z,1013.13
2023-02-03T02:07:31.374Z,1013.23
2023-02-03T02:08:31.496Z,1013.17
2023-02-03T02:09:31.644Z,1013.15
2023-02-03T02:10:31.768Z,1013.12
2023-02-03T02:11:31.913Z,1013.08
2023-02-03T02:12:32.036Z,1013.09
2023-02-03T02:13:32.157Z,1013.03
2023-02-03T02:14:32.275Z,1012.93
2023-02-03T02:15:32.481Z,1012.85
2023-02-03T02:16:32.570Z,1012.89
2023-02-03T02:17:32.693Z,1012.86
2023-02-03T02:18:39.936Z,1012.79
2023-02-03T02:19:33.026Z,1012.77
2023-02-03T02:20:33.152Z,1012.73
2023-02-03T02:21:35.036Z,1012.67
2023-02-03T02:22:33.470Z,1012.69
2023-02-03T02:23:33.614Z,1012.65
2023-02-03T02:24:33.749Z,1012.65
2023-02-03T02:25:33.899Z,1012.57
2023-02-03T02:26:34.094Z,1012.52
2023-02-03T02:27:34.241Z,1012.57
2023-02-03T02:28:34.376Z,1012.46
2023-02-03T02:29:34.498Z,1012.54
2023-02-03T02:30:34.667Z,1012.51
2023-02-03T02:31:35.054Z,1012.50
2023-02-03T02:32:34.924Z,1012.37
2023-02-03T02:33:35.095Z,1012.23
2023-02-03T02:34:35.294Z,1012.32
2023-02-03T02:35:35.481Z,1012.22
2023-02-03T02:36:35.631Z,1012.11
2023-02-03T02:37:35.800Z,1012.13
2023-02-03T02:38:35.932Z,1012.03
2023-02-03T02:39:36.080Z,1012.02
2023-02-03T02:40:36.210Z,1011.94
2023-02-03T02:41:36.424Z,1011.92
2023-02-03T02:42:36.459Z,1011.93
2023-02-03T02:43:36.617Z,1011.89
2023-02-03T02:44:36.758Z,1011.88
2023-02-03T02:45:36.943Z,1011.79
2023-02-03T02:46:37.123Z,1011.80
2023-02-03T02:47:37.311Z,1011.78
2023-02-03T02:48:37.487Z,1011.76
2023-02-03T02:49:37.662Z,1011.75
2023-02-03T02:50:37.791Z,1011.76
2023-02-03T02:51:37.963Z,1011.70
2023-02-03T02:52:38.097Z,1011.64
2023-02-03T02:53:38.260Z,1011.69
2023-02-03T02:54:38.408Z,1011.68
2023-02-03T02:55:38.553Z,1011.63
2023-02-03T02:56:38.705Z,1011.59
2023-02-03T02:57:38.884Z,1011.59
2023-02-03T02:58:39.021Z,1011.55
2023-02-03T02:59:39.207Z,1011.51
2023-02-03T03:00:39.340Z,1011.54
2023-02-03T03:01:39.609Z,1011.46
2023-02-03T03:02:39.633Z,1011.41
2023-02-03T03:03:39.796Z,1011.39
2023-02-03T03:04:39.963Z,1011.36
2023-02-03T03:05:40.112Z,1011.30
2023-02-03T03:06:40.277Z,1011.29
2023-02-03T03:07:40.428Z,1011.24
2023-02-03T03:08:40.570Z,1011.28
2023-02-03T03:09:40.725Z,1011.25
2023-02-03T03:10:40.870Z,1011.29
2023-02-03T03:11:41.037Z,1011.30
2023-02-03T03:12:41.187Z,1011.31
2023-02-03T03:13:41.354Z,1011.32
2023-02-03T03:14:41.511Z,1011.32
2023-02-03T03:15:41.701Z,1011.30
2023-02-03T03:16:41.853Z,1011.29
2023-02-03T03:17:42.001Z,1011.31
2023-02-03T03:18:42.147Z,1011.16
2023-02-03T03:19:42.308Z,1011.10
2023-02-03T03:20:42.452Z,1011.10
2023-02-03T03:21:42.625Z,1011.07
2023-02-03T03:22:42.768Z,1011.06
2023-02-03T03:23:42.905Z,1010.97
2023-02-03T03:24:43.050Z,1010.97
2023-02-03T03:25:43.215Z,1010.87
2023-02-03T03:26:43.385Z,1010.92
2023-02-03T03:27:43.594Z,1010.83
2023-02-03T03:28:43.722Z,1010.84
2023-02-03T03:29:43.912Z,1010.72
2023-02-03T03:30:44.073Z,1010.72
2023-02-03T03:31:44.289Z,1010.66
2023-02-03T03:32:44.322Z,1010.59
2023-02-03T03:33:44.495Z,1010.62
2023-02-03T03:34:44.646Z,1010.61
2023-02-03T03:35:44.794Z,1010.66
2023-02-03T03:36:44.965Z,1010.66
2023-02-03T03:37:45.117Z,1010.53
2023-02-03T03:38:45.265Z,1010.55
2023-02-03T03:39:45.446Z,1010.55
2023-02-03T03:40:45.586Z,1010.52
2023-02-03T03:41:45.766Z,1010.49
2023-02-03T03:42:45.912Z,1010.49
2023-02-03T03:43:46.061Z,1010.46
2023-02-03T03:44:46.187Z,1010.52
2023-02-03T03:45:46.325Z,1010.47
2023-02-03T03:46:46.517Z,1010.48
2023-02-03T03:47:46.648Z,1010.53
2023-02-03T03:48:46.785Z,1010.46
2023-02-03T03:49:46.958Z,1010.48
2023-02-03T03:50:47.090Z,1010.42
2023-02-03T03:51:47.245Z,1010.38
2023-02-03T03:52:47.380Z,1010.36
2023-02-03T03:53:47.542Z,1010.39
2023-02-03T03:54:47.679Z,1010.25
2023-02-03T03:55:47.886Z,1010.32
2023-02-03T03:56:47.935Z,1010.42
2023-02-03T03:57:48.102Z,1010.39
2023-02-03T03:58:48.229Z,1010.36
2023-02-03T03:59:48.368Z,1010.38
2023-02-03T04:00:48.498Z,1010.36
2023-02-03T04:01:48.784Z,1010.43
2023-02-03T04:02:48.845Z,1010.45
2023-02-03T04:03:48.907Z,1010.40
2023-02-03T04:04:49.056Z,1010.36
2023-02-03T04:05:49.190Z,1010.40
2023-02-03T04:06:49.328Z,1010.37
2023-02-03T04:07:49.465Z,1010.32
2023-02-03T04:08:49.589Z,1010.32
2023-02-03T04:09:49.740Z,1010.31
2023-02-03T04:10:49.859Z,1010.24
2023-02-03T04:11:50.031Z,1010.23
2023-02-03T04:12:50.167Z,1010.17
2023-02-03T04:13:50.311Z,1010.11
2023-02-03T04:14:50.440Z,1010.18
2023-02-03T04:15:50.567Z,1009.98
2023-02-03T04:16:50.693Z,1009.88
2023-02-03T04:17:50.835Z,1009.87
2023-02-03T04:18:50.961Z,1009.92
2023-02-03T04:19:51.086Z,1009.89
2023-02-03T04:20:51.216Z,1009.87
2023-02-03T04:21:51.354Z,1009.91
2023-02-03T04:22:51.472Z,1009.87
2023-02-03T04:23:51.601Z,1009.93
2023-02-03T04:24:51.719Z,1009.87
2023-02-03T04:25:51.866Z,1009.78
2023-02-03T04:26:51.995Z,1009.75
2023-02-03T04:27:52.146Z,1009.79
2023-02-03T04:28:52.246Z,1009.81
2023-02-03T04:29:52.398Z,1009.79
2023-02-03T04:30:52.570Z,1009.68
2023-02-03T04:31:52.791Z,1009.65
2023-02-03T04:32:52.866Z,1009.70
2023-02-03T04:33:53.059Z,1009.62
2023-02-03T04:34:53.231Z,1009.64
2023-02-03T04:35:53.438Z,1009.60
2023-02-03T04:36:53.631Z,1009.49
2023-02-03T04:37:53.759Z,1009.50
2023-02-03T04:38:53.877Z,1009.52
2023-02-03T04:39:54.009Z,1009.45
2023-02-03T04:40:54.115Z,1009.46
2023-02-03T04:41:54.253Z,1009.39
2023-02-03T04:42:54.363Z,1009.35
2023-02-03T04:43:54.479Z,1009.33
2023-02-03T04:44:54.587Z,1009.37
2023-02-03T04:45:54.774Z,1009.26
2023-02-03T04:46:54.901Z,1009.26
2023-02-03T04:47:55.012Z,1009.30
2023-02-03T04:48:55.139Z,1009.24
2023-02-03T04:49:55.268Z,1009.25
2023-02-03T04:50:55.383Z,1009.17
2023-02-03T04:51:55.511Z,1009.10
2023-02-03T04:52:55.615Z,1009.13
2023-02-03T04:53:55.745Z,1009.11
2023-02-03T04:54:55.906Z,1009.01
2023-02-03T04:55:55.993Z,1008.98
2023-02-03T04:56:56.120Z,1008.92
2023-02-03T04:57:56.231Z,1008.88
2023-02-03T04:58:56.331Z,1008.86
2023-02-03T04:59:56.462Z,1008.85
2023-02-03T05:00:56.683Z,1008.93
2023-02-03T05:01:56.773Z,1008.94
2023-02-03T05:02:56.989Z,1008.96
2023-02-03T05:03:57.062Z,1008.89
2023-02-03T05:04:57.217Z,1008.95
2023-02-03T05:05:57.419Z,1008.88
2023-02-03T05:06:57.596Z,1008.90
2023-02-03T05:07:57.707Z,1008.88
2023-02-03T05:08:57.812Z,1008.92
2023-02-03T05:09:57.933Z,1008.91
2023-02-03T05:10:59.156Z,1008.91
2023-02-03T05:11:58.147Z,1008.88
2023-02-03T05:12:58.242Z,1008.88
2023-02-03T05:13:58.356Z,1008.90
2023-02-03T05:14:58.454Z,1008.90
2023-02-03T05:15:58.596Z,1008.84
2023-02-03T05:16:58.763Z,1008.88
2023-02-03T05:17:58.869Z,1008.81
2023-02-03T05:18:58.996Z,1008.72
2023-02-03T05:19:59.101Z,1008.67
2023-02-03T05:20:59.193Z,1008.72
2023-02-03T05:21:59.325Z,1008.76
2023-02-03T05:22:59.433Z,1008.70
2023-02-03T05:23:59.551Z,1008.71
2023-02-03T05:24:59.646Z,1008.66
2023-02-03T05:25:59.765Z,1008.62
2023-02-03T05:26:59.885Z,1008.63
2023-02-03T05:28:00.042Z,1008.61
2023-02-03T05:29:00.171Z,1008.62
2023-02-03T05:30:00.296Z,1008.59
2023-02-03T05:31:00.553Z,1008.55
2023-02-03T05:32:00.731Z,1008.54
2023-02-03T05:33:00.699Z,1008.47
2023-02-03T05:34:00.802Z,1008.57
2023-02-03T05:35:00.915Z,1008.49
2023-02-03T05:36:01.015Z,1008.53
2023-02-03T05:37:01.133Z,1008.46
2023-02-03T05:38:01.232Z,1008.46
2023-02-03T05:39:01.327Z,1008.37
2023-02-03T05:40:01.423Z,1008.40
2023-02-03T05:41:01.522Z,1008.41
2023-02-03T05:42:01.641Z,1008.45
2023-02-03T05:43:01.737Z,1008.27
2023-02-03T05:44:01.857Z,1008.34
2023-02-03T05:45:01.948Z,1008.34
2023-02-03T05:46:02.109Z,1008.35
2023-02-03T05:47:02.201Z,1008.30
2023-02-03T05:48:02.288Z,1008.37
2023-02-03T05:49:02.374Z,1008.37
2023-02-03T05:50:02.485Z,1008.26
2023-02-03T05:51:02.573Z,1008.15
2023-02-03T05:52:02.685Z,1008.18
2023-02-03T05:53:02.762Z,1008.20
2023-02-03T05:54:02.997Z,1008.19
2023-02-03T05:55:03.101Z,1008.15
2023-02-03T05:56:03.324Z,1008.10
2023-02-03T05:57:03.434Z,1008.11
2023-02-03T05:58:03.532Z,1008.10
2023-02-03T05:59:03.656Z,1008.09
2023-02-03T06:00:03.767Z,1008.04
2023-02-03T06:01:03.846Z,1008.01
2023-02-03T06:02:04.092Z,1008.07
2023-02-03T06:03:04.202Z,1007.99
2023-02-03T06:04:04.368Z,1007.93
2023-02-03T06:05:04.393Z,1007.95
2023-02-03T06:06:04.466Z,1007.94
2023-02-03T06:07:04.561Z,1007.85
2023-02-03T06:08:04.656Z,1007.82
2023-02-03T06:09:04.725Z,1007.79
2023-02-03T06:10:04.897Z,1007.76
2023-02-03T06:11:05.027Z,1007.70
2023-02-03T06:12:05.199Z,1007.78
2023-02-03T06:13:05.367Z,1007.74
2023-02-03T06:14:05.540Z,1007.73
2023-02-03T06:15:05.676Z,1007.70
2023-02-03T06:16:05.837Z,1007.68
2023-02-03T06:17:06.020Z,1007.68
2023-02-03T06:18:06.201Z,1007.64
2023-02-03T06:19:06.361Z,1007.65
2023-02-03T06:20:06.539Z,1007.68
2023-02-03T06:21:06.718Z,1007.75
2023-02-03T06:22:06.897Z,1007.65
2023-02-03T06:23:07.077Z,1007.58
2023-02-03T06:24:07.247Z,1007.56
2023-02-03T06:25:07.433Z,1007.53
2023-02-03T06:26:07.825Z,1007.55
2023-02-03T06:27:07.805Z,1007.52
2023-02-03T06:28:07.956Z,1007.51
2023-02-03T06:29:08.034Z,1007.55
2023-02-03T06:30:08.209Z,1007.51
2023-02-03T06:31:08.503Z,1007.59
2023-02-03T06:32:08.554Z,1007.62
2023-02-03T06:33:08.593Z,1007.50
2023-02-03T06:34:08.757Z,1007.52
2023-02-03T06:35:08.948Z,1007.52
2023-02-03T06:36:09.012Z,1007.57
2023-02-03T06:37:09.120Z,1007.61
2023-02-03T06:38:09.203Z,1007.54
2023-02-03T06:39:09.403Z,1007.55
2023-02-03T06:40:09.582Z,1007.47
2023-02-03T06:41:09.767Z,1007.54
2023-02-03T06:42:09.867Z,1007.43
2023-02-03T06:43:10.006Z,1007.49
2023-02-03T06:44:10.091Z,1007.46
2023-02-03T06:45:10.189Z,1007.57
2023-02-03T06:46:10.355Z,1007.44
2023-02-03T06:47:10.464Z,1007.41
2023-02-03T06:48:10.542Z,1007.36
2023-02-03T06:49:10.720Z,1007.42
2023-02-03T06:50:10.835Z,1007.36
2023-02-03T06:51:10.913Z,1007.35
2023-02-03T06:52:11.002Z,1007.27
2023-02-03T06:53:11.114Z,1007.24
2023-02-03T06:54:11.180Z,1007.30
2023-02-03T06:55:11.377Z,1007.26
2023-02-03T06:56:11.477Z,1007.23
2023-02-03T06:57:11.585Z,1007.26
2023-02-03T06:58:11.650Z,1007.28
2023-02-03T06:59:11.843Z,1007.27
2023-02-03T07:00:13.902Z,1007.29
2023-02-03T07:01:12.133Z,1007.21
2023-02-03T07:02:12.245Z,1007.15
2023-02-03T07:03:12.324Z,1007.16
2023-02-03T07:04:12.390Z,1007.15
2023-02-03T07:05:12.636Z,1007.11
2023-02-03T07:06:12.703Z,1007.16
2023-02-03T07:07:12.799Z,1007.06
2023-02-03T07:08:12.859Z,1007.07
2023-02-03T07:09:13.096Z,1007.03
2023-02-03T07:10:13.178Z,1007.14
2023-02-03T07:11:13.341Z,1006.93
2023-02-03T07:12:13.433Z,1006.91
2023-02-03T07:13:13.522Z,1006.95
2023-02-03T07:14:13.723Z,1006.98
2023-02-03T07:15:13.806Z,1006.88
2023-02-03T07:16:13.881Z,1006.91
2023-02-03T07:17:14.058Z,1006.84
2023-02-03T07:18:18.030Z,1006.88
2023-02-03T07:19:15.265Z,1006.82
2023-02-03T07:20:14.433Z,1006.81
2023-02-03T07:21:14.621Z,1006.70
2023-02-03T07:22:14.701Z,1006.72
2023-02-03T07:23:14.909Z,1006.69
2023-02-03T07:24:14.971Z,1006.73
2023-02-03T07:25:15.153Z,1006.76
2023-02-03T07:26:15.221Z,1006.69
2023-02-03T07:27:15.413Z,1006.65
2023-02-03T07:28:15.494Z,1006.49
2023-02-03T07:29:15.656Z,1006.54
2023-02-03T07:30:15.707Z,1006.54
2023-02-03T07:31:15.941Z,1006.58
2023-02-03T07:32:16.040Z,1006.48
2023-02-03T07:33:16.107Z,1006.48
2023-02-03T07:34:16.276Z,1006.44
2023-02-03T07:35:16.456Z,1006.31
2023-02-03T07:36:16.616Z,1006.43
2023-02-03T07:37:16.795Z,1006.47
2023-02-03T07:38:16.959Z,1006.34
2023-02-03T07:39:17.125Z,1006.28
2023-02-03T07:40:17.304Z,1006.27
2023-02-03T07:41:18.263Z,1006.32
2023-02-03T07:42:17.615Z,1006.31
2023-02-03T07:43:17.662Z,1006.22
2023-02-03T07:44:17.905Z,1006.30
2023-02-03T07:45:18.001Z,1006.17
2023-02-03T07:46:18.091Z,1006.15
2023-02-03T07:47:18.179Z,1006.22
2023-02-03T07:48:18.341Z,1006.14
2023-02-03T07:49:18.503Z,1006.11
2023-02-03T07:50:18.652Z,1006.28
2023-02-03T07:51:18.835Z,1006.09
2023-02-03T07:52:21.047Z,1006.11
2023-02-03T07:53:19.203Z,1006.12
2023-02-03T07:54:19.260Z,1006.03
2023-02-03T07:55:19.482Z,1005.98
2023-02-03T07:56:19.510Z,1006.11
2023-02-03T07:57:19.689Z,1006.02
2023-02-03T07:58:19.863Z,1005.99
2023-02-03T07:59:20.034Z,1006.01
2023-02-03T08:00:20.076Z,1006.06
2023-02-03T08:01:20.264Z,1006.02
2023-02-03T08:02:20.439Z,1005.93
2023-02-03T08:03:20.621Z,1005.90
2023-02-03T08:04:20.670Z,1005.99
2023-02-03T08:05:20.853Z,1005.94
2023-02-03T08:06:21.036Z,1005.86
2023-02-03T08:07:21.223Z,1005.85
2023-02-03T08:08:21.284Z,1005.89
2023-02-03T08:09:21.443Z,1005.86
2023-02-03T08:10:21.605Z,1005.83
2023-02-03T08:11:21.780Z,1005.75
2023-02-03T08:12:21.951Z,1005.81
2023-02-03T08:13:22.131Z,1005.80
2023-02-03T08:14:22.287Z,1005.63
2023-02-03T08:15:22.471Z,1005.69
2023-02-03T08:16:22.714Z,1005.64
2023-02-03T08:17:22.804Z,1005.70
2023-02-03T08:18:22.863Z,1005.66
2023-02-03T08:19:30.025Z,1005.64
2023-02-03T08:20:23.143Z,1005.59
2023-02-03T08:21:23.306Z,1005.56
2023-02-03T08:22:23.489Z,1005.54
2023-02-03T08:23:23.688Z,1005.54
2023-02-03T08:24:23.828Z,1005.50
2023-02-03T08:25:23.907Z,1005.44
2023-02-03T08:26:24.064Z,1005.57
2023-02-03T08:27:24.384Z,1005.51
2023-02-03T08:28:24.320Z,1005.36
2023-02-03T08:29:24.599Z,1005.40
2023-02-03T08:30:24.642Z,1005.36
2023-02-03T08:31:25.947Z,1005.48
2023-02-03T08:32:25.073Z,1005.32
2023-02-03T08:33:25.080Z,1005.41
2023-02-03T08:34:25.313Z,1005.27
2023-02-03T08:35:25.337Z,1005.40
2023-02-03T08:36:25.523Z,1005.31
2023-02-03T08:37:25.736Z,1005.36
2023-02-03T08:38:25.795Z,1005.24
2023-02-03T08:39:25.974Z,1005.36
2023-02-03T08:40:26.612Z,1005.35
2023-02-03T08:41:26.229Z,1005.30
2023-02-03T08:42:26.417Z,1005.38
2023-02-03T08:43:26.509Z,1005.28
2023-02-03T08:44:26.584Z,1005.22
2023-02-03T08:45:26.853Z,1005.22
2023-02-03T08:46:26.895Z,1005.30
2023-02-03T08:47:27.076Z,1005.18
2023-02-03T08:48:27.253Z,1005.20
2023-02-03T08:49:27.310Z,1005.17
2023-02-03T08:50:28.868Z,1005.03
2023-02-03T08:51:27.747Z,1005.15
2023-02-03T08:52:27.822Z,1005.24
2023-02-03T08:53:27.980Z,1005.12
2023-02-03T08:54:28.142Z,1005.07
2023-02-03T08:55:28.332Z,1005.11
2023-02-03T08:56:28.366Z,1005.02
2023-02-03T08:57:28.550Z,1005.11
2023-02-03T08:58:28.703Z,1004.93
2023-02-03T08:59:28.889Z,1005.05
2023-02-03T09:00:29.512Z,1005.06
2023-02-03T09:01:29.178Z,1005.02
2023-02-03T09:02:29.266Z,1005.06
2023-02-03T09:03:29.448Z,1004.90
2023-02-03T09:04:29.614Z,1004.90
2023-02-03T09:05:29.770Z,1004.97
2023-02-03T09:06:29.916Z,1005.05
2023-02-03T09:07:30.099Z,1004.83
2023-02-03T09:08:30.230Z,1004.91
2023-02-03T09:09:30.976Z,1004.94
2023-02-03T09:10:30.933Z,1004.80
2023-02-03T09:11:30.762Z,1004.86
2023-02-03T09:12:30.941Z,1004.93
2023-02-03T09:13:31.011Z,1004.90
2023-02-03T09:14:31.166Z,1004.97
2023-02-03T09:15:31.337Z,1004.92
2023-02-03T09:16:31.610Z,1004.75
2023-02-03T09:17:31.699Z,1004.82
2023-02-03T09:18:31.738Z,1004.80
2023-02-03T09:19:32.640Z,1004.82
2023-02-03T09:20:32.419Z,1004.85
2023-02-03T09:21:34.147Z,1004.74
2023-02-03T09:22:33.383Z,1004.75
2023-02-03T09:23:32.454Z,1004.80
2023-02-03T09:24:32.592Z,1004.81
2023-02-03T09:25:32.754Z,1004.65
2023-02-03T09:26:32.897Z,1004.73
2023-02-03T09:27:33.077Z,1004.73
2023-02-03T09:28:33.111Z,1004.81
2023-02-03T09:29:33.286Z,1004.74
2023-02-03T09:30:33.420Z,1004.70
2023-02-03T09:31:33.525Z,1004.68
2023-02-03T09:32:33.583Z,1004.64
2023-02-03T09:33:33.630Z,1004.64
2023-02-03T09:34:33.807Z,1004.57
2023-02-03T09:35:33.968Z,1004.57
2023-02-03T09:36:34.123Z,1004.51
2023-02-03T09:37:34.292Z,1004.50
2023-02-03T09:38:34.442Z,1004.51
2023-02-03T09:39:34.595Z,1004.47
2023-02-03T09:40:34.763Z,1004.44
2023-02-03T09:41:34.936Z,1004.47
2023-02-03T09:42:36.068Z,1004.46
2023-02-03T09:43:35.785Z,1004.43
2023-02-03T09:44:35.552Z,1004.47
2023-02-03T09:45:35.537Z,1004.39
2023-02-03T09:46:35.656Z,1004.30
2023-02-03T09:47:36.029Z,1004.49
2023-02-03T09:48:35.962Z,1004.37
2023-02-03T09:49:36.108Z,1004.30
2023-02-03T09:50:36.269Z,1004.29
2023-02-03T09:51:36.467Z,1004.22
2023-02-03T09:52:36.511Z,1004.27
2023-02-03T09:53:36.670Z,1004.30
2023-02-03T09:54:36.821Z,1004.26
2023-02-03T09:55:36.979Z,1004.34
2023-02-03T09:56:37.332Z,1004.32
2023-02-03T09:57:37.303Z,1004.28
2023-02-03T09:58:37.445Z,1004.23
2023-02-03T09:59:38.170Z,1004.20
2023-02-03T10:00:37.819Z,1004.25
2023-02-03T10:01:37.898Z,1004.19
2023-02-03T10:02:37.993Z,1004.18
2023-02-03T10:03:38.141Z,1004.13
2023-02-03T10:04:38.282Z,1003.97
2023-02-03T10:05:38.464Z,1004.04
2023-02-03T10:06:38.600Z,1003.96
2023-02-03T10:07:38.766Z,1003.87
2023-02-03T10:08:38.924Z,1004.01
2023-02-03T10:09:39.088Z,1003.83
2023-02-03T10:10:39.233Z,1004.03
2023-02-03T10:11:39.383Z,1003.87
2023-02-03T10:12:39.547Z,1003.76
2023-02-03T10:13:39.691Z,1003.64
2023-02-03T10:14:39.842Z,1003.51
2023-02-03T10:15:40.019Z,1003.52
2023-02-03T10:16:40.260Z,1003.42
2023-02-03T10:17:40.293Z,1003.47
2023-02-03T10:18:40.461Z,1003.38
2023-02-03T10:19:40.603Z,1003.25
2023-02-03T10:20:40.759Z,1003.39
2023-02-03T10:21:40.927Z,1003.42
2023-02-03T10:22:41.099Z,1003.49
2023-02-03T10:23:41.256Z,1003.36
2023-02-03T10:24:41.404Z,1003.45
2023-02-03T10:25:41.552Z,1003.53
2023-02-03T10:26:41.698Z,1003.42
2023-02-03T10:27:41.878Z,1003.34
2023-02-03T10:28:42.043Z,1003.40
2023-02-03T10:29:42.283Z,1003.01
2023-02-03T10:30:42.398Z,1003.31
2023-02-03T10:31:42.607Z,1003.36
2023-02-03T10:32:42.607Z,1003.47
2023-02-03T10:33:42.682Z,1003.43
2023-02-03T10:34:42.818Z,1003.44
2023-02-03T10:35:42.993Z,1003.39
2023-02-03T10:36:43.148Z,1003.44
2023-02-03T10:37:43.312Z,1003.57
2023-02-03T10:38:43.476Z,1003.49
2023-02-03T10:39:43.628Z,1003.46
2023-02-03T10:40:43.817Z,1003.53
2023-02-03T10:41:43.975Z,1003.49
2023-02-03T10:42:45.000Z,1003.58
2023-02-03T10:43:44.278Z,1003.76
2023-02-03T10:44:44.459Z,1003.52
2023-02-03T10:45:44.650Z,1003.75
2023-02-03T10:46:44.723Z,1003.81
2023-02-03T10:47:44.858Z,1003.95
2023-02-03T10:48:44.915Z,1004.08
2023-02-03T10:49:45.057Z,1004.26
2023-02-03T10:50:45.228Z,1004.54
2023-02-03T10:51:45.911Z,1004.30
2023-02-03T10:52:45.535Z,1004.30
2023-02-03T10:53:45.562Z,1004.21
2023-02-03T10:54:45.712Z,1004.28
2023-02-03T10:55:45.860Z,1004.46
2023-02-03T10:56:46.045Z,1004.49
2023-02-03T10:57:46.098Z,1004.35
2023-02-03T10:58:46.268Z,1004.45
2023-02-03T10:59:46.445Z,1004.46
2023-02-03T11:00:46.605Z,1004.47
2023-02-03T11:01:46.835Z,1004.36
2023-02-03T11:02:47.009Z,1004.03
2023-02-03T11:03:47.056Z,1004.45
2023-02-03T11:04:47.228Z,1004.38
2023-02-03T11:05:47.387Z,1004.34
2023-02-03T11:06:47.557Z,1004.31
2023-02-03T11:07:47.749Z,1004.38
2023-02-03T11:08:47.907Z,1004.31
2023-02-03T11:09:48.057Z,1004.44
2023-02-03T11:10:48.246Z,1004.20
2023-02-03T11:11:48.389Z,1004.22
2023-02-03T11:12:48.562Z,1004.34
2023-02-03T11:13:48.700Z,1004.31
2023-02-03T11:14:48.844Z,1004.30
2023-02-03T11:15:49.073Z,1004.33
2023-02-03T11:16:49.154Z,1004.26
2023-02-03T11:17:49.290Z,1004.18
2023-02-03T11:18:49.479Z,1004.26
2023-02-03T11:19:49.602Z,1004.36
2023-02-03T11:20:49.767Z,1004.31
2023-02-03T11:21:49.913Z,1004.19
2023-02-03T11:22:50.070Z,1004.28
2023-02-03T11:23:50.215Z,1004.30
2023-02-03T11:24:50.351Z,1004.30
2023-02-03T11:25:50.506Z,1004.28
2023-02-03T11:26:50.654Z,1004.32
2023-02-03T11:27:50.872Z,1004.13
2023-02-03T11:28:50.915Z,1004.24
2023-02-03T11:29:51.037Z,1004.19
2023-02-03T11:30:51.245Z,1004.13
2023-02-03T11:31:51.424Z,1003.99
2023-02-03T11:32:51.488Z,1004.14
2023-02-03T11:33:51.611Z,1004.14
2023-02-03T11:34:51.750Z,1004.09
2023-02-03T11:35:51.989Z,1004.17
2023-02-03T11:36:52.013Z,1004.19
2023-02-03T11:37:52.178Z,1004.16
2023-02-03T11:38:52.320Z,1004.18
2023-02-03T11:39:52.452Z,1004.41
2023-02-03T11:40:52.587Z,1004.16
2023-02-03T11:41:52.719Z,1004.23
2023-02-03T11:42:52.898Z,1004.34
2023-02-03T11:43:53.055Z,1004.21
2023-02-03T11:44:53.183Z,1004.42
2023-02-03T11:45:53.307Z,1004.26
2023-02-03T11:46:53.439Z,1004.28
2023-02-03T11:47:53.581Z,1004.28
2023-02-03T11:48:53.733Z,1004.30
2023-02-03T11:49:53.854Z,1004.22
2023-02-03T11:50:54.028Z,1004.22
2023-02-03T11:51:54.050Z,1004.30
2023-02-03T11:52:54.213Z,1004.32
2023-02-03T11:53:57.141Z,1004.21
2023-02-03T11:54:54.441Z,1004.08
2023-02-03T11:55:54.544Z,1004.11
2023-02-03T11:56:54.651Z,1004.15
2023-02-03T11:57:54.794Z,1003.95
2023-02-03T11:58:54.900Z,1004.17
2023-02-03T11:59:55.023Z,1004.15
2023-02-03T12:00:55.134Z,1004.10
2023-02-03T12:01:55.203Z,1004.19
2023-02-03T12:02:55.375Z,1004.30
2023-02-03T12:03:55.434Z,1004.23
2023-02-03T12:04:55.595Z,1004.18
2023-02-03T12:05:55.559Z,1004.28
2023-02-03T12:06:55.664Z,1004.18